Time;durP1;ratioP1;P1;durP2;ratioP2;P2;SDS_P1;SDS_P2;PMS_P1;PMS_P2;Temp;Humidity;BMP_temperature;BMP_pressure;BME280_temperature;BME280_humidity;BME280_pressure;Samples;Min_cycle;Max_cycle;Signal;HPM_P1;HPM_P2
2021/07/27 00:00:30;;;;;;;8.93;7.20;;;23.80;96.70;;;;;;5074404;28;20553;-53
2021/07/27 00:02:57;;;;;;;8.40;6.83;;;23.70;97.00;;;;;;5074390;28;20429;-54
2021/07/27 00:05:23;;;;;;;9.30;6.90;;;23.70;97.20;;;;;;5074489;28;20439;-54
2021/07/27 00:07:51;;;;;;;9.40;7.20;;;23.60;97.40;;;;;;5074341;28;20489;-55
2021/07/27 00:10:18;;;;;;;8.20;7.23;;;23.60;97.60;;;;;;5073881;28;21018;-54
2021/07/27 00:12:46;;;;;;;8.10;6.50;;;23.60;97.70;;;;;;5074339;28;20847;-54
2021/07/27 00:15:12;;;;;;;10.30;7.23;;;23.60;97.90;;;;;;5074376;28;20440;-54
2021/07/27 00:17:39;;;;;;;7.50;6.60;;;23.60;98.00;;;;;;5074271;28;20684;-54
2021/07/27 00:20:07;;;;;;;8.00;7.20;;;23.60;98.20;;;;;;5073806;28;20436;-54
2021/07/27 00:22:33;;;;;;;8.80;7.93;;;23.50;98.20;;;;;;5074240;28;20439;-54
2021/07/27 00:25:01;;;;;;;7.57;6.90;;;23.50;98.40;;;;;;5076940;28;20440;-53
2021/07/27 00:27:28;;;;;;;9.93;6.47;;;23.60;98.60;;;;;;5073952;28;20486;-54
2021/07/27 00:29:54;;;;;;;11.60;7.30;;;23.40;98.70;;;;;;5073770;28;20945;-53
2021/07/27 00:32:21;;;;;;;9.27;7.90;;;23.40;98.80;;;;;;5073948;28;20464;-54
2021/07/27 00:34:47;;;;;;;7.83;7.13;;;23.50;99.00;;;;;;5073954;28;20432;-53
2021/07/27 00:37:17;;;;;;;8.67;6.93;;;23.40;99.10;;;;;;5073715;28;20443;-54
2021/07/27 00:39:44;;;;;;;6.80;6.20;;;23.40;99.30;;;;;;5073800;28;21082;-55
2021/07/27 00:42:14;;;;;;;8.40;7.30;;;23.40;99.60;;;;;;5073965;28;20456;-54
2021/07/27 00:44:42;;;;;;;7.87;6.87;;;23.30;99.70;;;;;;5073780;28;20443;-54
2021/07/27 00:47:08;;;;;;;7.80;7.13;;;23.30;99.80;;;;;;5073391;28;20566;-54
2021/07/27 00:49:35;;;;;;;11.27;7.17;;;23.30;99.90;;;;;;5073756;28;20929;-54
2021/07/27 00:52:02;;;;;;;8.00;7.30;;;23.30;99.90;;;;;;5073418;28;20478;-54
2021/07/27 00:54:29;;;;;;;8.03;7.30;;;23.30;99.90;;;;;;5074123;28;20489;-56
2021/07/27 00:56:56;;;;;;;9.73;7.30;;;23.30;99.90;;;;;;5073574;28;20840;-53
2021/07/27 00:59:24;;;;;;;8.77;7.90;;;23.30;99.90;;;;;;5073537;28;20487;-54
2021/07/27 01:01:50;;;;;;;7.40;6.77;;;23.30;99.90;;;;;;5055509;28;20996;-53
2021/07/27 01:04:17;;;;;;;9.00;8.10;;;23.30;99.90;;;;;;5073028;28;20436;-54
2021/07/27 01:06:43;;;;;;;10.90;7.37;;;23.30;99.90;;;;;;5072592;28;20602;-54
2021/07/27 01:09:10;;;;;;;7.80;7.10;;;23.30;99.90;;;;;;5072440;28;20440;-53
2021/07/27 01:11:40;;;;;;;7.80;7.07;;;23.20;99.90;;;;;;5072624;28;20459;-54
2021/07/27 01:14:07;;;;;;;8.87;7.47;;;23.20;99.90;;;;;;5072532;28;20577;-54
2021/07/27 01:16:36;;;;;;;8.27;6.93;;;23.20;99.90;;;;;;5072622;28;20808;-53
2021/07/27 01:19:14;;;;;;;11.50;7.93;;;23.20;99.90;;;;;;5072031;28;20522;-54
2021/07/27 01:38:16;;;;;;;9.17;7.27;;;23.00;99.90;;;;;;5040979;28;20443;-54
2021/07/27 01:40:50;;;;;;;9.60;8.70;;;23.00;99.90;;;;;;5072111;28;20568;-54
2021/07/27 01:43:18;;;;;;;9.97;7.10;;;23.00;99.90;;;;;;5072061;28;20451;-54
2021/07/27 01:45:45;;;;;;;8.27;7.47;;;23.00;99.90;;;;;;5072116;28;20558;-55
2021/07/27 01:48:43;;;;;;;9.40;7.80;;;23.00;99.90;;;;;;5071405;28;20480;-54
2021/07/27 01:51:23;;;;;;;9.67;8.03;;;23.00;99.90;;;;;;5071792;28;20824;-55
2021/07/27 01:53:51;;;;;;;10.17;8.53;;;23.00;99.90;;;;;;5071909;28;20441;-55
2021/07/27 01:56:20;;;;;;;8.27;7.47;;;22.90;99.90;;;;;;5071475;28;20446;-55
2021/07/27 01:58:48;;;;;;;10.13;9.07;;;22.90;99.90;;;;;;5070539;28;20438;-55
2021/07/27 02:01:15;;;;;;;9.03;8.10;;;22.90;99.90;;;;;;5071301;28;20455;-55
2021/07/27 02:03:42;;;;;;;9.10;7.93;;;22.90;99.90;;;;;;5071790;28;20435;-54
2021/07/27 02:06:08;;;;;;;11.57;8.60;;;22.90;99.90;;;;;;5072129;28;20428;-53
2021/07/27 02:08:35;;;;;;;8.77;8.07;;;22.90;99.90;;;;;;5071198;28;20534;-54
2021/07/27 02:11:03;;;;;;;9.60;8.80;;;22.80;99.90;;;;;;5071433;28;20479;-54
2021/07/27 02:13:47;;;;;;;11.97;7.57;;;22.90;99.90;;;;;;5071514;28;20924;-54
2021/07/27 02:16:14;;;;;;;9.60;8.60;;;22.90;99.90;;;;;;5071628;28;20547;-54
2021/07/27 02:18:41;;;;;;;8.57;7.73;;;23.30;99.90;;;;;;5071033;28;20442;-54
2021/07/27 02:21:07;;;;;;;9.80;8.77;;;22.90;99.90;;;;;;5071288;28;20450;-53
2021/07/27 02:23:34;;;;;;;9.37;8.47;;;22.90;99.90;;;;;;5071309;28;20436;-54
2021/07/27 02:26:02;;;;;;;10.47;8.63;;;22.80;99.90;;;;;;5053412;28;20467;-54
2021/07/27 02:28:28;;;;;;;9.50;8.50;;;22.70;99.90;;;;;;5070874;28;20933;-55
2021/07/27 02:30:58;;;;;;;9.13;7.83;;;22.80;99.90;;;;;;5071154;28;20454;-54
2021/07/27 02:33:25;;;;;;;9.07;8.13;;;22.80;99.90;;;;;;5071379;28;20554;-54
2021/07/27 02:35:52;;;;;;;8.23;7.43;;;22.80;99.90;;;;;;5071658;28;20648;-54
2021/07/27 02:38:19;;;;;;;7.70;7.10;;;22.70;99.90;;;;;;5070765;28;20427;-54
2021/07/27 02:40:46;;;;;;;7.83;7.20;;;22.70;99.90;;;;;;5071105;28;20446;-54
2021/07/27 02:43:12;;;;;;;11.03;7.00;;;22.70;99.90;;;;;;5071179;28;20430;-54
2021/07/27 02:45:39;;;;;;;9.20;8.30;;;22.70;99.90;;;;;;5071770;28;20916;-53
2021/07/27 02:48:08;;;;;;;8.90;8.10;;;22.70;99.90;;;;;;5073062;28;20492;-54
2021/07/27 02:50:47;;;;;;;8.57;7.60;;;22.70;99.90;;;;;;5052057;28;20521;-53
2021/07/27 02:53:14;;;;;;;8.70;7.90;;;22.70;99.90;;;;;;5069983;28;20895;-54
2021/07/27 02:55:42;;;;;;;10.47;8.03;;;22.70;99.90;;;;;;5070973;28;20809;-54
2021/07/27 02:58:30;;;;;;;13.10;8.10;;;22.70;99.90;;;;;;5070658;28;20531;-53
2021/07/27 03:00:56;;;;;;;10.77;8.27;;;22.70;99.90;;;;;;5070899;28;20465;-54
2021/07/27 03:03:24;;;;;;;8.90;7.70;;;22.60;99.90;;;;;;5070775;28;20794;-54
2021/07/27 03:05:55;;;;;;;10.90;8.47;;;22.60;99.90;;;;;;5071036;28;20583;-54
2021/07/27 03:08:23;;;;;;;10.53;8.33;;;22.60;99.90;;;;;;5071279;28;20477;-54
2021/07/27 03:10:52;;;;;;;11.77;8.80;;;22.60;99.90;;;;;;5075179;28;20450;-54
2021/07/27 03:13:19;;;;;;;8.43;7.63;;;22.60;99.90;;;;;;5074905;28;20449;-55
2021/07/27 03:15:45;;;;;;;8.10;7.30;;;22.50;99.90;;;;;;5074737;28;20429;-54
2021/07/27 03:18:12;;;;;;;9.40;7.50;;;22.50;99.90;;;;;;5074381;28;20427;-54
2021/07/27 03:20:40;;;;;;;8.07;7.23;;;22.50;99.90;;;;;;5056745;28;20462;-54
2021/07/27 03:23:07;;;;;;;8.43;7.40;;;22.50;99.90;;;;;;5074649;28;20451;-54
2021/07/27 03:25:34;;;;;;;9.27;7.50;;;22.50;99.90;;;;;;5074774;28;20430;-54
2021/07/27 03:28:01;;;;;;;7.87;7.07;;;22.50;99.90;;;;;;5074387;28;20476;-55
2021/07/27 03:30:30;;;;;;;9.53;7.23;;;22.50;99.90;;;;;;5074192;28;20448;-54
2021/07/27 03:32:56;;;;;;;11.90;7.83;;;22.40;99.90;;;;;;5074497;28;20477;-54
2021/07/27 03:35:23;;;;;;;12.30;7.77;;;22.40;99.90;;;;;;5074390;28;20927;-54
2021/07/27 03:37:51;;;;;;;11.00;7.70;;;22.40;99.90;;;;;;5074223;28;20429;-54
2021/07/27 03:40:17;;;;;;;10.20;7.87;;;22.20;99.90;;;;;;5073734;28;20448;-54
2021/07/27 03:42:44;;;;;;;12.70;7.63;;;22.60;99.90;;;;;;5074301;28;20446;-54
2021/07/27 03:45:12;;;;;;;8.87;8.07;;;22.40;99.90;;;;;;5074233;28;20436;-54
2021/07/27 03:47:38;;;;;;;8.73;7.50;;;22.40;99.90;;;;;;5074364;28;20480;-54
2021/07/27 03:50:06;;;;;;;8.73;7.90;;;22.40;99.90;;;;;;5073864;28;20434;-54
2021/07/27 03:52:34;;;;;;;8.90;7.80;;;22.30;99.90;;;;;;5074259;28;20792;-54
2021/07/27 03:55:02;;;;;;;9.70;8.70;;;22.30;99.90;;;;;;5073959;28;20446;-54
2021/07/27 03:57:28;;;;;;;8.07;7.27;;;22.40;99.90;;;;;;5074856;28;20432;-54
2021/07/27 03:59:55;;;;;;;8.63;7.80;;;22.20;99.90;;;;;;5074382;28;20436;-54
2021/07/27 04:02:21;;;;;;;11.80;8.50;;;22.30;99.90;;;;;;5073877;28;20450;-54
2021/07/27 04:04:48;;;;;;;9.13;8.23;;;22.30;99.90;;;;;;5073805;28;20439;-55
2021/07/27 04:07:15;;;;;;;8.27;7.53;;;22.30;99.90;;;;;;5073900;28;20452;-54
2021/07/27 04:09:41;;;;;;;10.43;7.87;;;22.30;99.90;;;;;;5073517;28;20941;-54
2021/07/27 04:12:09;;;;;;;9.17;8.37;;;22.30;99.90;;;;;;5073572;28;20834;-54
2021/07/27 04:14:36;;;;;;;8.13;7.33;;;22.40;99.90;;;;;;5073631;28;20440;-55
2021/07/27 04:17:03;;;;;;;8.50;7.70;;;22.40;99.90;;;;;;5073454;28;20851;-54
2021/07/27 04:19:30;;;;;;;9.53;7.87;;;22.40;99.90;;;;;;5072748;28;20496;-54
2021/07/27 04:21:57;;;;;;;8.70;7.90;;;22.50;99.90;;;;;;5072946;28;20513;-54
2021/07/27 04:24:23;;;;;;;9.20;8.30;;;22.50;99.90;;;;;;5073320;28;20438;-54
2021/07/27 04:26:50;;;;;;;8.57;7.67;;;22.50;99.90;;;;;;5055196;28;20487;-54
2021/07/27 04:29:18;;;;;;;10.40;9.30;;;22.60;99.90;;;;;;5073071;28;21009;-55
2021/07/27 04:31:45;;;;;;;11.27;8.17;;;22.70;99.90;;;;;;5073193;28;20458;-54
2021/07/27 04:34:12;;;;;;;8.73;7.83;;;22.80;99.90;;;;;;5073198;28;20446;-54
2021/07/27 04:36:38;;;;;;;19.53;17.33;;;22.90;99.90;;;;;;5073146;28;20431;-54
2021/07/27 04:39:05;;;;;;;9.83;8.23;;;23.00;99.90;;;;;;5072708;28;20434;-53
2021/07/27 04:41:32;;;;;;;10.03;8.80;;;23.10;99.90;;;;;;5073116;28;20974;-54
2021/07/27 04:43:58;;;;;;;9.90;8.33;;;23.20;99.90;;;;;;5073026;28;20466;-53
2021/07/27 04:46:26;;;;;;;10.70;7.60;;;23.10;99.90;;;;;;5072943;28;20439;-55
2021/07/27 04:48:53;;;;;;;9.20;7.30;;;23.40;99.90;;;;;;5072563;28;20940;-55
2021/07/27 04:51:20;;;;;;;8.50;7.70;;;23.50;99.90;;;;;;5089741;22;20866;-53
2021/07/27 04:53:48;;;;;;;7.83;7.00;;;23.60;99.90;;;;;;5051830;28;20447;-53
2021/07/27 04:56:14;;;;;;;11.87;7.43;;;23.70;99.90;;;;;;5052325;28;20437;-54
2021/07/27 04:58:41;;;;;;;8.77;7.87;;;23.70;99.90;;;;;;5051623;28;20512;-54
2021/07/27 05:01:08;;;;;;;7.47;6.77;;;23.80;99.90;;;;;;5051926;28;20453;-53
2021/07/27 05:03:35;;;;;;;8.43;7.53;;;23.90;99.90;;;;;;5052209;28;20454;-53
2021/07/27 05:06:06;;;;;;;8.80;7.93;;;23.90;99.90;;;;;;5034088;28;20449;-53
2021/07/27 05:08:33;;;;;;;10.17;7.60;;;24.00;99.90;;;;;;5051619;28;20480;-54
2021/07/27 05:11:01;;;;;;;10.00;7.87;;;24.00;99.90;;;;;;5051738;28;20957;-53
2021/07/27 05:13:27;;;;;;;9.90;8.00;;;24.10;99.90;;;;;;5051732;28;20442;-53
2021/07/27 05:15:54;;;;;;;8.53;7.03;;;24.10;99.90;;;;;;5052183;28;20433;-54
2021/07/27 05:18:21;;;;;;;10.00;7.47;;;24.20;99.90;;;;;;5051296;28;20827;-54
2021/07/27 05:20:49;;;;;;;15.97;7.37;;;24.30;99.90;;;;;;5051833;28;21013;-53
2021/07/27 05:23:15;;;;;;;7.80;7.03;;;24.10;99.90;;;;;;5051498;28;20442;-54
2021/07/27 05:25:42;;;;;;;7.20;6.50;;;24.40;99.90;;;;;;5051487;28;20433;-54
2021/07/27 05:28:09;;;;;;;9.67;6.90;;;24.40;99.90;;;;;;5051554;28;20533;-54
2021/07/27 05:30:36;;;;;;;8.17;7.17;;;24.50;99.90;;;;;;5051434;28;20462;-54
2021/07/27 05:33:04;;;;;;;9.93;7.53;;;24.50;99.90;;;;;;5051359;28;20440;-55
2021/07/27 05:35:31;;;;;;;9.23;7.50;;;24.60;99.90;;;;;;5051714;28;20428;-54
2021/07/27 05:37:59;;;;;;;11.03;6.73;;;24.60;99.90;;;;;;5051187;28;20437;-54
2021/07/27 05:40:30;;;;;;;10.50;6.80;;;24.70;99.90;;;;;;5051127;28;20767;-54
2021/07/27 05:42:57;;;;;;;6.90;6.20;;;24.70;99.90;;;;;;5051120;28;20604;-54
2021/07/27 05:45:24;;;;;;;7.73;7.03;;;24.80;99.90;;;;;;5050919;28;20487;-54
2021/07/27 05:47:51;;;;;;;7.90;6.50;;;24.90;99.90;;;;;;5050783;28;20794;-53
2021/07/27 05:50:18;;;;;;;9.07;6.63;;;24.90;99.90;;;;;;5032556;28;20438;-54
2021/07/27 05:52:45;;;;;;;10.77;7.00;;;25.00;99.90;;;;;;5051112;28;20553;-53
2021/07/27 05:55:14;;;;;;;12.77;7.70;;;25.00;99.90;;;;;;5032645;28;20493;-54
2021/07/27 05:57:41;;;;;;;10.00;5.97;;;25.30;99.90;;;;;;5051077;28;20427;-54
2021/07/27 06:00:08;;;;;;;8.70;7.20;;;25.20;99.90;;;;;;5050398;28;20433;-54
2021/07/27 06:02:38;;;;;;;9.73;6.47;;;25.30;99.90;;;;;;5050337;28;20451;-54
2021/07/27 06:05:05;;;;;;;6.20;5.70;;;25.40;99.90;;;;;;5050736;28;20495;-54
2021/07/27 06:07:32;;;;;;;7.40;6.70;;;25.40;99.90;;;;;;5050662;28;20439;-53
2021/07/27 06:09:59;;;;;;;11.90;7.47;;;25.50;99.90;;;;;;5050415;28;20602;-53
2021/07/27 06:12:27;;;;;;;7.70;5.90;;;25.60;99.90;;;;;;5050601;28;20448;-54
2021/07/27 06:14:54;;;;;;;7.57;6.10;;;25.70;99.80;;;;;;5050609;28;20438;-54
2021/07/27 06:17:20;;;;;;;10.30;6.67;;;25.70;99.60;;;;;;5050318;28;20431;-54
2021/07/27 06:19:47;;;;;;;8.83;5.83;;;25.80;99.30;;;;;;5050305;28;20429;-54
2021/07/27 06:22:16;;;;;;;8.80;5.37;;;25.90;98.90;;;;;;5050304;28;20447;-54
2021/07/27 06:24:43;;;;;;;6.23;5.60;;;26.00;98.60;;;;;;5050096;28;20437;-54
2021/07/27 06:27:10;;;;;;;7.70;6.00;;;26.00;98.20;;;;;;5050254;28;20433;-55
2021/07/27 06:29:38;;;;;;;6.23;5.50;;;26.10;98.10;;;;;;5050025;28;20578;-55
2021/07/27 06:32:06;;;;;;;5.57;5.00;;;26.20;97.90;;;;;;5050256;28;20468;-54
2021/07/27 06:34:32;;;;;;;8.03;5.37;;;26.20;97.50;;;;;;5050536;28;20821;-54
2021/07/27 06:36:59;;;;;;;7.87;5.50;;;26.20;97.30;;;;;;5050216;28;20433;-54
2021/07/27 06:39:26;;;;;;;5.70;4.80;;;26.20;97.00;;;;;;5049808;28;20443;-54
2021/07/27 06:41:55;;;;;;;7.93;4.97;;;26.20;96.70;;;;;;5050045;28;20970;-53
2021/07/27 06:44:21;;;;;;;7.57;5.57;;;26.30;96.60;;;;;;5049643;28;20576;-54
2021/07/27 06:46:49;;;;;;;8.10;4.87;;;26.30;96.30;;;;;;5050066;28;20429;-55
2021/07/27 06:49:16;;;;;;;5.10;4.60;;;26.30;96.10;;;;;;5050019;28;20532;-55
2021/07/27 06:51:43;;;;;;;6.80;4.53;;;26.40;96.00;;;;;;5049995;28;20466;-55
2021/07/27 06:54:09;;;;;;;10.10;5.20;;;26.40;95.90;;;;;;5050277;28;20461;-54
2021/07/27 06:56:37;;;;;;;9.53;4.80;;;26.40;95.60;;;;;;5049703;28;20538;-54
2021/07/27 06:59:04;;;;;;;7.97;5.07;;;26.40;95.50;;;;;;5049819;28;20516;-54
2021/07/27 07:01:30;;;;;;;8.60;5.70;;;26.40;95.20;;;;;;5050325;28;20450;-55
2021/07/27 07:03:59;;;;;;;8.43;5.63;;;26.40;95.20;;;;;;5050148;28;20437;-55
2021/07/27 07:06:25;;;;;;;6.80;5.20;;;26.40;95.10;;;;;;5049996;28;20434;-54
2021/07/27 07:08:52;;;;;;;4.43;4.03;;;26.40;95.10;;;;;;5049547;28;20478;-54
2021/07/27 07:11:19;;;;;;;6.07;4.43;;;26.40;95.00;;;;;;5049840;28;20468;-54
2021/07/27 07:13:45;;;;;;;12.43;5.70;;;26.30;94.70;;;;;;5049784;28;20430;-54
2021/07/27 07:16:13;;;;;;;8.10;4.30;;;26.40;94.90;;;;;;5049894;28;20434;-54
2021/07/27 07:18:40;;;;;;;5.03;3.87;;;26.40;94.70;;;;;;5049452;28;20996;-54
2021/07/27 07:21:08;;;;;;;8.33;4.70;;;26.40;94.60;;;;;;5049537;28;20553;-54
2021/07/27 07:23:35;;;;;;;4.80;4.30;;;26.40;94.60;;;;;;5031700;28;20502;-54
2021/07/27 07:26:04;;;;;;;4.27;3.97;;;26.40;94.60;;;;;;5049818;28;20423;-55
2021/07/27 07:28:31;;;;;;;5.67;5.07;;;26.50;94.60;;;;;;5049449;28;20819;-54
2021/07/27 07:30:58;;;;;;;5.33;4.17;;;26.50;94.40;;;;;;5049733;28;20508;-54
2021/07/27 07:33:24;;;;;;;6.13;4.20;;;26.50;94.00;;;;;;5049697;28;20442;-54
2021/07/27 07:35:51;;;;;;;4.90;4.40;;;26.50;93.60;;;;;;5049569;28;20492;-53
2021/07/27 07:38:19;;;;;;;4.53;3.47;;;26.60;93.50;;;;;;5049462;28;20446;-55
2021/07/27 07:40:46;;;;;;;5.67;3.97;;;26.60;92.90;;;;;;5049743;28;20518;-54
2021/07/27 07:43:12;;;;;;;7.53;4.47;;;26.60;92.60;;;;;;5049824;28;20529;-55
2021/07/27 07:45:39;;;;;;;4.20;3.80;;;26.70;92.20;;;;;;5049655;28;20899;-55
2021/07/27 07:48:06;;;;;;;6.80;4.40;;;26.70;92.30;;;;;;5048874;28;20918;-54
2021/07/27 07:50:33;;;;;;;6.60;4.17;;;26.70;92.20;;;;;;5049252;28;20804;-55
2021/07/27 07:53:00;;;;;;;4.87;4.07;;;26.70;92.10;;;;;;5049557;28;20439;-55
2021/07/27 07:55:29;;;;;;;3.80;3.10;;;26.80;92.00;;;;;;5050218;28;20496;-54
2021/07/27 07:57:55;;;;;;;7.47;4.40;;;26.80;92.00;;;;;;5053198;28;20431;-53
2021/07/27 08:00:24;;;;;;;4.10;3.70;;;26.80;92.00;;;;;;5052932;28;20527;-53
2021/07/27 08:02:51;;;;;;;7.43;3.43;;;26.90;91.80;;;;;;5052813;28;20833;-54
2021/07/27 08:05:18;;;;;;;6.57;4.67;;;26.90;91.60;;;;;;5052997;28;20556;-54
2021/07/27 08:07:44;;;;;;;4.43;4.00;;;26.90;91.30;;;;;;5052873;28;20441;-55
2021/07/27 08:10:12;;;;;;;4.87;4.37;;;26.90;90.80;;;;;;5052449;28;20481;-54
2021/07/27 08:12:41;;;;;;;4.30;3.90;;;26.90;90.60;;;;;;5052587;28;20486;-55
2021/07/27 08:15:09;;;;;;;7.47;4.37;;;27.00;90.60;;;;;;5052586;28;20442;-55
2021/07/27 08:17:36;;;;;;;5.13;4.10;;;26.90;90.60;;;;;;5034917;28;20549;-55
2021/07/27 08:20:03;;;;;;;5.73;4.40;;;27.00;90.80;;;;;;5052851;28;20436;-54
2021/07/27 08:22:30;;;;;;;5.80;5.20;;;26.90;90.80;;;;;;5052822;28;20447;-55
2021/07/27 08:24:57;;;;;;;5.20;4.70;;;26.90;90.90;;;;;;5034658;28;20454;-55
2021/07/27 08:27:23;;;;;;;5.23;4.17;;;26.90;91.00;;;;;;5054606;28;20477;-54
2021/07/27 08:29:51;;;;;;;5.83;4.20;;;26.90;91.10;;;;;;5052417;28;20591;-53
2021/07/27 08:32:18;;;;;;;7.27;4.00;;;26.90;90.90;;;;;;5052263;28;20450;-55
2021/07/27 08:34:45;;;;;;;11.10;4.00;;;27.20;91.20;;;;;;5052754;28;20767;-54
2021/07/27 08:37:12;;;;;;;5.57;4.83;;;26.90;91.30;;;;;;5052634;28;20529;-55
2021/07/27 08:39:39;;;;;;;9.53;5.20;;;27.00;91.40;;;;;;5052127;28;20534;-55
2021/07/27 08:42:06;;;;;;;7.20;4.30;;;27.00;91.40;;;;;;5052289;28;20446;-55
2021/07/27 08:44:35;;;;;;;8.20;4.90;;;27.00;91.50;;;;;;5052359;28;20525;-55
2021/07/27 08:47:04;;;;;;;6.57;4.30;;;27.00;91.30;;;;;;5033838;28;20450;-54
2021/07/27 08:49:31;;;;;;;4.57;4.13;;;27.10;90.90;;;;;;5051625;28;20478;-55
2021/07/27 08:51:58;;;;;;;13.50;4.27;;;27.10;90.70;;;;;;5051711;28;20576;-55
2021/07/27 08:54:25;;;;;;;7.90;4.60;;;27.20;90.60;;;;;;5051895;28;20438;-54
2021/07/27 08:56:53;;;;;;;4.83;4.03;;;27.20;90.30;;;;;;5051750;28;20446;-54
2021/07/27 08:59:21;;;;;;;5.00;4.27;;;27.20;90.00;;;;;;5033757;28;20497;-54
2021/07/27 09:01:48;;;;;;;6.60;3.80;;;27.30;89.40;;;;;;5051831;28;20542;-55
2021/07/27 09:04:16;;;;;;;5.80;3.60;;;27.30;88.10;;;;;;5052083;28;20441;-53
2021/07/27 09:06:43;;;;;;;4.10;3.70;;;27.40;87.50;;;;;;5051938;28;20444;-54
2021/07/27 09:09:11;;;;;;;4.70;4.20;;;27.30;86.50;;;;;;5051467;28;20477;-55
2021/07/27 09:11:45;;;;;;;9.57;3.60;;;27.40;86.50;;;;;;5051980;28;20450;-54
2021/07/27 09:14:15;;;;;;;4.50;3.40;;;27.50;85.80;;;;;;5051739;28;20430;-55
2021/07/27 09:16:45;;;;;;;3.93;3.30;;;27.50;85.60;;;;;;5051304;28;20474;-56
2021/07/27 09:19:12;;;;;;;4.27;3.90;;;27.50;84.10;;;;;;5051210;28;20819;-55
2021/07/27 09:21:42;;;;;;;4.30;3.53;;;27.50;82.40;;;;;;5052023;28;20456;-55
2021/07/27 09:24:09;;;;;;;4.63;4.13;;;27.60;82.30;;;;;;5051583;28;20439;-55
2021/07/27 09:26:35;;;;;;;4.73;3.17;;;27.70;82.30;;;;;;5051629;28;20427;-54
2021/07/27 09:29:03;;;;;;;4.97;3.70;;;27.80;82.50;;;;;;5051077;28;20438;-55
2021/07/27 09:31:30;;;;;;;4.50;3.50;;;28.00;82.10;;;;;;5033064;28;21003;-54
2021/07/27 09:33:56;;;;;;;4.40;3.87;;;28.10;81.30;;;;;;5051314;28;20468;-54
2021/07/27 09:36:25;;;;;;;3.90;3.47;;;28.10;81.20;;;;;;5051140;28;20521;-53
2021/07/27 09:39:24;;;;;;;5.80;3.83;;;28.10;80.90;;;;;;5050577;28;20534;-54
2021/07/27 09:41:58;;;;;;;7.60;4.80;;;28.10;79.20;;;;;;5050701;28;20453;-54
2021/07/27 09:44:25;;;;;;;6.30;4.30;;;28.10;79.60;;;;;;5051024;28;20534;-54
2021/07/27 09:46:54;;;;;;;7.60;3.80;;;28.10;79.40;;;;;;5032759;28;20440;-54
2021/07/27 09:49:22;;;;;;;5.00;3.17;;;28.20;79.50;;;;;;5050439;28;20481;-53
2021/07/27 09:51:50;;;;;;;4.00;3.30;;;28.20;79.70;;;;;;5050892;28;20485;-54
2021/07/27 09:54:19;;;;;;;6.20;4.10;;;28.20;78.90;;;;;;5051058;28;20439;-55
2021/07/27 09:56:45;;;;;;;4.80;3.97;;;28.20;78.30;;;;;;5050645;28;20549;-55
2021/07/27 09:59:14;;;;;;;5.80;4.80;;;28.30;78.50;;;;;;5050663;28;20426;-54
2021/07/27 10:01:44;;;;;;;6.80;4.40;;;28.30;78.20;;;;;;5050755;28;20487;-54
2021/07/27 10:04:11;;;;;;;4.77;4.10;;;28.30;78.20;;;;;;5050712;28;20511;-55
2021/07/27 10:06:45;;;;;;;6.47;4.30;;;28.40;78.40;;;;;;5050811;28;20772;-54
2021/07/27 10:09:25;;;;;;;5.03;4.10;;;28.40;78.10;;;;;;5050431;28;20433;-54
2021/07/27 10:11:52;;;;;;;7.20;4.10;;;28.60;78.70;;;;;;5050570;28;20822;-53
2021/07/27 10:14:20;;;;;;;5.23;4.73;;;28.80;79.00;;;;;;5051100;28;20554;-53
2021/07/27 10:16:48;;;;;;;6.07;4.77;;;28.90;78.50;;;;;;5050478;28;20512;-54
2021/07/27 10:19:17;;;;;;;7.00;4.27;;;29.00;77.30;;;;;;5049497;28;20443;-55
2021/07/27 10:21:44;;;;;;;5.90;4.13;;;28.90;77.40;;;;;;5050074;28;20497;-54
2021/07/27 10:24:17;;;;;;;6.57;3.90;;;28.90;77.80;;;;;;5050339;28;20442;-53
2021/07/27 10:26:45;;;;;;;6.00;3.60;;;28.80;77.90;;;;;;5050405;28;20500;-54
2021/07/27 10:29:13;;;;;;;5.53;4.30;;;28.70;78.60;;;;;;5049622;28;20775;-54
2021/07/27 10:31:42;;;;;;;6.70;4.53;;;28.60;79.10;;;;;;5049933;28;20457;-54
2021/07/27 10:34:09;;;;;;;5.57;4.27;;;28.50;79.10;;;;;;5050293;28;20499;-54
2021/07/27 10:36:38;;;;;;;3.83;3.50;;;28.60;79.70;;;;;;5050190;28;20430;-54
2021/07/27 10:39:07;;;;;;;5.03;4.53;;;28.60;79.50;;;;;;5049680;28;20456;-54
2021/07/27 10:41:39;;;;;;;5.03;4.27;;;28.70;79.40;;;;;;5050143;28;20829;-54
2021/07/27 10:44:09;;;;;;;5.70;3.73;;;28.70;79.00;;;;;;5050001;28;20525;-54
2021/07/27 10:46:38;;;;;;;4.80;3.63;;;28.80;78.70;;;;;;5050174;28;20470;-55
2021/07/27 10:49:05;;;;;;;5.10;3.90;;;28.90;78.50;;;;;;5049827;28;20449;-54
2021/07/27 10:51:37;;;;;;;4.70;3.60;;;29.00;78.00;;;;;;5079267;22;20580;-55
2021/07/27 10:54:05;;;;;;;4.63;4.20;;;29.10;77.40;;;;;;5070246;28;20461;-54
2021/07/27 10:56:33;;;;;;;4.93;4.10;;;29.20;77.10;;;;;;5070180;28;20457;-56
2021/07/27 10:59:00;;;;;;;6.10;4.30;;;29.20;76.40;;;;;;5052323;28;20445;-55
2021/07/27 11:01:32;;;;;;;4.47;3.43;;;29.20;76.10;;;;;;5070058;28;20489;-54
2021/07/27 11:04:11;;;;;;;5.63;4.30;;;29.20;74.70;;;;;;5070959;28;20441;-54
2021/07/27 11:06:38;;;;;;;4.57;3.83;;;29.30;74.60;;;;;;5070210;28;20433;-56
2021/07/27 11:09:11;;;;;;;4.20;3.80;;;29.40;74.60;;;;;;5069612;28;20436;-55
2021/07/27 11:11:45;;;;;;;5.13;3.93;;;29.40;74.20;;;;;;5070179;28;20941;-56
2021/07/27 11:14:17;;;;;;;5.70;4.03;;;29.50;74.00;;;;;;5070300;28;20430;-54
2021/07/27 11:16:46;;;;;;;4.30;3.90;;;29.60;73.60;;;;;;5052331;28;20489;-56
2021/07/27 11:19:24;;;;;;;4.80;4.23;;;29.60;71.30;;;;;;5069859;28;20434;-56
2021/07/27 11:21:51;;;;;;;4.00;3.50;;;29.70;68.60;;;;;;5070154;28;20821;-56
2021/07/27 11:24:18;;;;;;;4.27;3.87;;;29.70;68.10;;;;;;5070224;28;20548;-56
2021/07/27 11:26:50;;;;;;;4.40;3.30;;;29.70;67.20;;;;;;5070102;28;20441;-57
2021/07/27 11:29:20;;;;;;;6.43;3.63;;;29.80;67.40;;;;;;5070422;28;20648;-56
2021/07/27 11:31:49;;;;;;;5.33;3.90;;;29.90;68.10;;;;;;5074011;28;20481;-56
2021/07/27 11:34:27;;;;;;;5.40;3.67;;;30.00;68.80;;;;;;5073862;28;20886;-54
2021/07/27 11:36:54;;;;;;;3.87;3.53;;;30.00;68.10;;;;;;5073812;28;20429;-55
2021/07/27 11:39:20;;;;;;;3.73;3.40;;;30.00;68.30;;;;;;5073502;28;20524;-55
2021/07/27 11:41:58;;;;;;;4.17;3.77;;;30.00;68.10;;;;;;5055155;28;20473;-55
2021/07/27 11:44:25;;;;;;;4.90;4.10;;;30.00;68.20;;;;;;5073477;28;20433;-55
2021/07/27 11:46:53;;;;;;;4.13;3.33;;;29.90;67.70;;;;;;5055476;28;20545;-55
2021/07/27 11:49:20;;;;;;;5.00;3.67;;;29.90;67.70;;;;;;5073419;28;20448;-55
2021/07/27 11:51:47;;;;;;;5.73;3.63;;;29.90;67.40;;;;;;5073482;28;20655;-55
2021/07/27 11:54:24;;;;;;;4.30;3.63;;;29.90;66.70;;;;;;5073905;28;20426;-56
2021/07/27 11:56:50;;;;;;;4.23;3.80;;;29.90;65.60;;;;;;5074186;28;20429;-55
2021/07/27 11:59:25;;;;;;;15.53;7.90;;;29.90;65.70;;;;;;5074093;28;20436;-56
2021/07/27 12:01:53;;;;;;;6.00;4.60;;;29.90;65.80;;;;;;5055680;28;20476;-55
2021/07/27 12:04:20;;;;;;;4.90;3.40;;;29.90;66.00;;;;;;5073860;28;20464;-56
2021/07/27 12:06:47;;;;;;;10.20;4.17;;;30.00;66.10;;;;;;5074028;28;20450;-54
2021/07/27 12:09:14;;;;;;;4.90;3.50;;;30.00;65.60;;;;;;5073340;28;20445;-55
2021/07/27 12:11:41;;;;;;;7.30;5.63;;;30.10;65.00;;;;;;5073145;28;20977;-55
2021/07/27 12:14:08;;;;;;;4.00;3.60;;;30.20;64.70;;;;;;5055373;28;20533;-56
2021/07/27 12:16:34;;;;;;;5.00;3.50;;;30.20;64.10;;;;;;5073315;28;20442;-55
2021/07/27 12:19:02;;;;;;;3.90;3.50;;;30.40;63.30;;;;;;5073016;28;20860;-56
2021/07/27 12:21:29;;;;;;;3.60;3.10;;;30.60;62.20;;;;;;5072972;28;20480;-63
2021/07/27 12:23:56;;;;;;;4.10;2.87;;;30.70;61.40;;;;;;5073070;28;20433;-55
2021/07/27 12:26:22;;;;;;;6.10;3.17;;;30.70;60.50;;;;;;5073182;28;20442;-54
2021/07/27 12:28:49;;;;;;;3.97;2.83;;;30.70;60.90;;;;;;5072655;28;20521;-56
2021/07/27 12:31:16;;;;;;;4.93;3.27;;;30.60;60.50;;;;;;5072697;28;21021;-55
2021/07/27 12:33:42;;;;;;;8.17;3.10;;;30.50;60.20;;;;;;5072899;28;21049;-55
2021/07/27 12:36:10;;;;;;;4.13;3.10;;;30.40;59.90;;;;;;5054612;28;20446;-56
2021/07/27 12:38:37;;;;;;;7.27;3.07;;;30.30;59.80;;;;;;5072548;28;20429;-54
2021/07/27 12:41:03;;;;;;;8.63;3.60;;;30.20;60.00;;;;;;5071932;28;20440;-56
2021/07/27 12:43:30;;;;;;;3.27;2.97;;;30.20;60.60;;;;;;5072751;28;20425;-56
2021/07/27 12:45:57;;;;;;;4.30;3.47;;;30.20;60.40;;;;;;5072645;28;20437;-55
2021/07/27 12:48:24;;;;;;;6.47;4.00;;;30.20;60.40;;;;;;5072455;28;20426;-54
2021/07/27 12:50:50;;;;;;;3.77;3.37;;;30.20;61.60;;;;;;5072448;28;20568;-56
2021/07/27 12:53:18;;;;;;;4.60;2.90;;;30.20;60.90;;;;;;5072512;28;20426;-54
2021/07/27 12:55:45;;;;;;;5.20;3.83;;;30.30;61.20;;;;;;5072584;28;20905;-54
2021/07/27 12:58:12;;;;;;;3.97;3.57;;;30.40;60.70;;;;;;5072161;28;20430;-56
2021/07/27 13:00:38;;;;;;;4.03;3.10;;;30.50;60.00;;;;;;5072584;28;20612;-55
2021/07/27 13:03:05;;;;;;;4.90;3.70;;;30.60;59.50;;;;;;5072737;28;20457;-55
2021/07/27 13:05:34;;;;;;;3.10;2.80;;;30.70;59.70;;;;;;5073267;28;20460;-56